sensor_id;sensor_type;location;lat;lon;timestamp;temperature;humidity
65854;DHT22;52627;48.838;2.402;2022-11-20T00:01:27;10.45;69.85
65854;DHT22;52627;48.838;2.402;2022-11-20T00:03:55;10.43;69.68
65854;DHT22;52627;48.838;2.402;2022-11-20T00:06:25;10.41;69.63
65854;DHT22;52627;48.838;2.402;2022-11-20T00:08:54;10.39;69.58
65854;DHT22;52627;48.838;2.402;2022-11-20T00:11:23;10.36;69.51
65854;DHT22;52627;48.838;2.402;2022-11-20T00:13:54;10.35;69.50
65854;DHT22;52627;48.838;2.402;2022-11-20T00:16:26;10.34;69.45
65854;DHT22;52627;48.838;2.402;2022-11-20T00:18:54;10.33;69.43
65854;DHT22;52627;48.838;2.402;2022-11-20T00:21:22;10.31;69.39
65854;DHT22;52627;48.838;2.402;2022-11-20T00:23:53;10.29;69.28
65854;DHT22;52627;48.838;2.402;2022-11-20T00:26:22;10.26;69.22
65854;DHT22;52627;48.838;2.402;2022-11-20T00:28:52;10.24;69.20
65854;DHT22;52627;48.838;2.402;2022-11-20T00:31:21;10.22;69.19
65854;DHT22;52627;48.838;2.402;2022-11-20T00:33:49;10.20;69.19
65854;DHT22;52627;48.838;2.402;2022-11-20T00:36:19;10.19;69.11
65854;DHT22;52627;48.838;2.402;2022-11-20T00:38:53;10.17;69.06
65854;DHT22;52627;48.838;2.402;2022-11-20T00:41:21;10.15;69.07
65854;DHT22;52627;48.838;2.402;2022-11-20T00:43:51;10.13;69.01
65854;DHT22;52627;48.838;2.402;2022-11-20T00:46:23;10.11;69.00
65854;DHT22;52627;48.838;2.402;2022-11-20T00:48:54;10.11;69.00
65854;DHT22;52627;48.838;2.402;2022-11-20T00:51:22;10.09;68.94
65854;DHT22;52627;48.838;2.402;2022-11-20T00:53:51;10.06;68.91
65854;DHT22;52627;48.838;2.402;2022-11-20T00:56:18;10.04;68.92
65854;DHT22;52627;48.838;2.402;2022-11-20T00:58:46;10.02;68.91
65854;DHT22;52627;48.838;2.402;2022-11-20T01:01:16;9.99;68.90
65854;DHT22;52627;48.838;2.402;2022-11-20T01:03:52;9.96;68.90
65854;DHT22;52627;48.838;2.402;2022-11-20T01:06:24;9.95;68.91
65854;DHT22;52627;48.838;2.402;2022-11-20T01:09:07;9.92;68.90
65854;DHT22;52627;48.838;2.402;2022-11-20T01:11:39;9.91;68.90
65854;DHT22;52627;48.838;2.402;2022-11-20T01:14:10;9.87;68.85
65854;DHT22;52627;48.838;2.402;2022-11-20T01:16:43;9.85;68.85
65854;DHT22;52627;48.838;2.402;2022-11-20T01:19:16;9.82;68.80
65854;DHT22;52627;48.838;2.402;2022-11-20T01:21:50;9.78;68.80
65854;DHT22;52627;48.838;2.402;2022-11-20T01:24:20;9.75;68.77
65854;DHT22;52627;48.838;2.402;2022-11-20T01:26:49;9.73;68.79
65854;DHT22;52627;48.838;2.402;2022-11-20T01:29:18;9.71;68.79
65854;DHT22;52627;48.838;2.402;2022-11-20T01:31:48;9.69;68.78
65854;DHT22;52627;48.838;2.402;2022-11-20T01:34:17;9.66;68.73
65854;DHT22;52627;48.838;2.402;2022-11-20T01:36:46;9.63;68.70
65854;DHT22;52627;48.838;2.402;2022-11-20T01:39:14;9.62;68.70
65854;DHT22;52627;48.838;2.402;2022-11-20T01:41:46;9.59;68.70
65854;DHT22;52627;48.838;2.402;2022-11-20T01:44:55;9.56;68.68
65854;DHT22;52627;48.838;2.402;2022-11-20T01:47:30;9.54;68.67
65854;DHT22;52627;48.838;2.402;2022-11-20T01:50:21;9.51;68.70
65854;DHT22;52627;48.838;2.402;2022-11-20T01:52:56;9.49;68.70
65854;DHT22;52627;48.838;2.402;2022-11-20T01:55:34;9.47;68.70
65854;DHT22;52627;48.838;2.402;2022-11-20T01:58:06;9.45;68.70
65854;DHT22;52627;48.838;2.402;2022-11-20T02:00:33;9.43;68.71
65854;DHT22;52627;48.838;2.402;2022-11-20T02:03:01;9.40;68.70
65854;DHT22;52627;48.838;2.402;2022-11-20T02:08:21;9.37;68.80
65854;DHT22;52627;48.838;2.402;2022-11-20T02:10:50;9.37;68.80
65854;DHT22;52627;48.838;2.402;2022-11-20T02:13:17;9.34;68.81
65854;DHT22;52627;48.838;2.402;2022-11-20T02:16:02;9.31;68.83
65854;DHT22;52627;48.838;2.402;2022-11-20T02:18:30;9.29;68.90
65854;DHT22;52627;48.838;2.402;2022-11-20T02:20:59;9.28;68.90
65854;DHT22;52627;48.838;2.402;2022-11-20T02:24:07;9.26;68.96
65854;DHT22;52627;48.838;2.402;2022-11-20T02:26:41;9.23;69.00
65854;DHT22;52627;48.838;2.402;2022-11-20T02:32:20;9.22;69.00
65854;DHT22;52627;48.838;2.402;2022-11-20T02:34:50;9.22;69.02
65854;DHT22;52627;48.838;2.402;2022-11-20T02:37:18;9.20;69.08
65854;DHT22;52627;48.838;2.402;2022-11-20T02:39:47;9.19;69.09
65854;DHT22;52627;48.838;2.402;2022-11-20T02:42:16;9.18;69.10
65854;DHT22;52627;48.838;2.402;2022-11-20T02:44:44;9.18;69.10
65854;DHT22;52627;48.838;2.402;2022-11-20T02:47:11;9.16;69.10
65854;DHT22;52627;48.838;2.402;2022-11-20T02:49:37;9.14;69.10
65854;DHT22;52627;48.838;2.402;2022-11-20T02:52:04;9.13;69.10
65854;DHT22;52627;48.838;2.402;2022-11-20T02:54:31;9.11;69.11
65854;DHT22;52627;48.838;2.402;2022-11-20T02:56:58;9.09;69.10
65854;DHT22;52627;48.838;2.402;2022-11-20T02:59:25;9.10;69.10
65854;DHT22;52627;48.838;2.402;2022-11-20T03:01:52;9.09;69.09
65854;DHT22;52627;48.838;2.402;2022-11-20T03:04:18;9.08;69.10
65854;DHT22;52627;48.838;2.402;2022-11-20T03:06:45;9.07;69.10
65854;DHT22;52627;48.838;2.402;2022-11-20T03:09:12;9.05;69.10
65854;DHT22;52627;48.838;2.402;2022-11-20T03:11:39;9.05;69.10
65854;DHT22;52627;48.838;2.402;2022-11-20T03:14:06;9.04;69.10
65854;DHT22;52627;48.838;2.402;2022-11-20T03:16:32;9.03;69.17
65854;DHT22;52627;48.838;2.402;2022-11-20T03:18:59;9.03;69.19
65854;DHT22;52627;48.838;2.402;2022-11-20T03:21:26;9.02;69.20
65854;DHT22;52627;48.838;2.402;2022-11-20T03:23:54;9.03;69.24
65854;DHT22;52627;48.838;2.402;2022-11-20T03:26:22;9.02;69.29
65854;DHT22;52627;48.838;2.402;2022-11-20T03:28:52;8.98;69.36
65854;DHT22;52627;48.838;2.402;2022-11-20T03:31:22;8.88;69.50
65854;DHT22;52627;48.838;2.402;2022-11-20T03:34:01;8.80;69.63
65854;DHT22;52627;48.838;2.402;2022-11-20T03:36:29;8.71;69.73
65854;DHT22;52627;48.838;2.402;2022-11-20T03:38:57;8.64;69.84
65854;DHT22;52627;48.838;2.402;2022-11-20T03:41:25;8.56;69.93
65854;DHT22;52627;48.838;2.402;2022-11-20T03:43:58;8.50;70.05
65854;DHT22;52627;48.838;2.402;2022-11-20T03:46:28;8.46;70.12
65854;DHT22;52627;48.838;2.402;2022-11-20T03:48:55;8.42;70.21
65854;DHT22;52627;48.838;2.402;2022-11-20T03:51:23;8.35;70.39
65854;DHT22;52627;48.838;2.402;2022-11-20T03:53:53;8.30;70.44
65854;DHT22;52627;48.838;2.402;2022-11-20T03:56:23;8.26;70.51
65854;DHT22;52627;48.838;2.402;2022-11-20T03:58:53;8.24;70.58
65854;DHT22;52627;48.838;2.402;2022-11-20T04:01:21;8.21;70.64
65854;DHT22;52627;48.838;2.402;2022-11-20T04:03:51;8.18;70.71
65854;DHT22;52627;48.838;2.402;2022-11-20T04:06:21;8.15;70.81
65854;DHT22;52627;48.838;2.402;2022-11-20T04:08:54;8.13;70.90
65854;DHT22;52627;48.838;2.402;2022-11-20T04:11:26;8.11;70.99
65854;DHT22;52627;48.838;2.402;2022-11-20T04:13:58;8.09;71.05
65854;DHT22;52627;48.838;2.402;2022-11-20T04:16:28;8.08;71.10
65854;DHT22;52627;48.838;2.402;2022-11-20T04:19:01;8.09;71.17
65854;DHT22;52627;48.838;2.402;2022-11-20T04:21:31;8.09;71.20
65854;DHT22;52627;48.838;2.402;2022-11-20T04:23:59;8.10;71.28
65854;DHT22;52627;48.838;2.402;2022-11-20T04:26:26;8.10;71.30
65854;DHT22;52627;48.838;2.402;2022-11-20T04:28:56;8.11;71.40
65854;DHT22;52627;48.838;2.402;2022-11-20T04:31:24;8.11;71.46
65854;DHT22;52627;48.838;2.402;2022-11-20T04:33:53;8.10;71.56
65854;DHT22;52627;48.838;2.402;2022-11-20T04:36:24;8.09;71.60
65854;DHT22;52627;48.838;2.402;2022-11-20T04:38:53;8.11;71.63
65854;DHT22;52627;48.838;2.402;2022-11-20T04:41:31;8.11;71.70
65854;DHT22;52627;48.838;2.402;2022-11-20T04:44:01;8.11;71.78
65854;DHT22;52627;48.838;2.402;2022-11-20T04:46:31;8.12;71.80
65854;DHT22;52627;48.838;2.402;2022-11-20T04:49:01;8.12;71.82
65854;DHT22;52627;48.838;2.402;2022-11-20T04:51:28;8.12;71.90
65854;DHT22;52627;48.838;2.402;2022-11-20T04:53:55;8.11;71.97
65854;DHT22;52627;48.838;2.402;2022-11-20T04:56:22;8.11;72.00
65854;DHT22;52627;48.838;2.402;2022-11-20T04:58:49;8.11;72.00
65854;DHT22;52627;48.838;2.402;2022-11-20T05:01:17;8.11;72.08
65854;DHT22;52627;48.838;2.402;2022-11-20T05:03:49;8.12;72.10
65854;DHT22;52627;48.838;2.402;2022-11-20T05:06:18;8.11;72.13
65854;DHT22;52627;48.838;2.402;2022-11-20T05:08:47;8.11;72.18
65854;DHT22;52627;48.838;2.402;2022-11-20T05:11:15;8.10;72.30
65854;DHT22;52627;48.838;2.402;2022-11-20T05:13:45;8.06;72.34
65854;DHT22;52627;48.838;2.402;2022-11-20T05:16:13;7.97;72.55
65854;DHT22;52627;48.838;2.402;2022-11-20T05:18:45;7.88;72.62
65854;DHT22;52627;48.838;2.402;2022-11-20T05:21:13;7.82;72.71
65854;DHT22;52627;48.838;2.402;2022-11-20T05:23:40;7.75;72.79
65854;DHT22;52627;48.838;2.402;2022-11-20T05:26:13;7.72;72.81
65854;DHT22;52627;48.838;2.402;2022-11-20T05:28:45;7.71;72.81
65854;DHT22;52627;48.838;2.402;2022-11-20T05:31:17;7.69;72.85
65854;DHT22;52627;48.838;2.402;2022-11-20T05:33:54;7.71;72.90
65854;DHT22;52627;48.838;2.402;2022-11-20T05:36:23;7.71;72.96
65854;DHT22;52627;48.838;2.402;2022-11-20T05:38:50;7.70;73.00
65854;DHT22;52627;48.838;2.402;2022-11-20T05:41:19;7.71;73.03
65854;DHT22;52627;48.838;2.402;2022-11-20T05:43:47;7.72;73.10
65854;DHT22;52627;48.838;2.402;2022-11-20T05:46:16;7.74;73.10
65854;DHT22;52627;48.838;2.402;2022-11-20T05:48:54;7.76;73.12
65854;DHT22;52627;48.838;2.402;2022-11-20T05:51:21;7.77;73.16
65854;DHT22;52627;48.838;2.402;2022-11-20T05:53:48;7.77;73.23
65854;DHT22;52627;48.838;2.402;2022-11-20T05:56:16;7.75;73.30
65854;DHT22;52627;48.838;2.402;2022-11-20T05:58:45;7.74;73.30
65854;DHT22;52627;48.838;2.402;2022-11-20T06:01:22;7.71;73.36
65854;DHT22;52627;48.838;2.402;2022-11-20T06:03:52;7.70;73.40
65854;DHT22;52627;48.838;2.402;2022-11-20T06:06:20;7.68;73.40
65854;DHT22;52627;48.838;2.402;2022-11-20T06:08:47;7.67;73.43
65854;DHT22;52627;48.838;2.402;2022-11-20T06:11:15;7.66;73.48
65854;DHT22;52627;48.838;2.402;2022-11-20T06:13:43;7.65;73.50
65854;DHT22;52627;48.838;2.402;2022-11-20T06:16:12;7.63;73.51
65854;DHT22;52627;48.838;2.402;2022-11-20T06:18:41;7.63;73.58
65854;DHT22;52627;48.838;2.402;2022-11-20T06:21:09;7.59;73.66
65854;DHT22;52627;48.838;2.402;2022-11-20T06:23:40;7.56;73.76
65854;DHT22;52627;48.838;2.402;2022-11-20T06:26:08;7.52;73.80
65854;DHT22;52627;48.838;2.402;2022-11-20T06:28:38;7.49;73.81
65854;DHT22;52627;48.838;2.402;2022-11-20T06:31:06;7.47;73.90
65854;DHT22;52627;48.838;2.402;2022-11-20T06:33:34;7.45;73.91
65854;DHT22;52627;48.838;2.402;2022-11-20T06:36:04;7.43;74.01
65854;DHT22;52627;48.838;2.402;2022-11-20T06:38:37;7.41;74.05
65854;DHT22;52627;48.838;2.402;2022-11-20T06:41:06;7.37;74.12
65854;DHT22;52627;48.838;2.402;2022-11-20T06:43:38;7.36;74.21
65854;DHT22;52627;48.838;2.402;2022-11-20T06:46:06;7.30;74.35
65854;DHT22;52627;48.838;2.402;2022-11-20T06:48:34;7.24;74.41
65854;DHT22;52627;48.838;2.402;2022-11-20T06:51:05;7.19;74.47
65854;DHT22;52627;48.838;2.402;2022-11-20T06:53:33;7.16;74.47
65854;DHT22;52627;48.838;2.402;2022-11-20T06:56:01;7.13;74.51
65854;DHT22;52627;48.838;2.402;2022-11-20T06:58:29;7.11;74.59
65854;DHT22;52627;48.838;2.402;2022-11-20T07:00:58;7.07;74.68
65854;DHT22;52627;48.838;2.402;2022-11-20T07:03:31;7.03;74.68
65854;DHT22;52627;48.838;2.402;2022-11-20T07:05:58;7.04;74.67
65854;DHT22;52627;48.838;2.402;2022-11-20T07:08:27;7.03;74.70
65854;DHT22;52627;48.838;2.402;2022-11-20T07:11:01;7.02;74.73
65854;DHT22;52627;48.838;2.402;2022-11-20T07:13:32;7.01;74.79
65854;DHT22;52627;48.838;2.402;2022-11-20T07:16:00;7.01;74.80
65854;DHT22;52627;48.838;2.402;2022-11-20T07:18:32;7.04;74.80
65854;DHT22;52627;48.838;2.402;2022-11-20T07:21:02;7.06;74.81
65854;DHT22;52627;48.838;2.402;2022-11-20T07:23:32;7.10;74.88
65854;DHT22;52627;48.838;2.402;2022-11-20T07:26:17;7.13;74.90
65854;DHT22;52627;48.838;2.402;2022-11-20T07:28:44;7.17;74.90
65854;DHT22;52627;48.838;2.402;2022-11-20T07:31:11;7.19;74.91
65854;DHT22;52627;48.838;2.402;2022-11-20T07:33:45;7.21;74.90
65854;DHT22;52627;48.838;2.402;2022-11-20T07:36:12;7.25;74.90
65854;DHT22;52627;48.838;2.402;2022-11-20T07:38:39;7.30;74.92
65854;DHT22;52627;48.838;2.402;2022-11-20T07:41:06;7.34;74.90
65854;DHT22;52627;48.838;2.402;2022-11-20T07:43:33;7.37;74.90
65854;DHT22;52627;48.838;2.402;2022-11-20T07:46:06;7.39;74.90
65854;DHT22;52627;48.838;2.402;2022-11-20T07:48:33;7.43;74.89
65854;DHT22;52627;48.838;2.402;2022-11-20T07:51:00;7.46;74.88
65854;DHT22;52627;48.838;2.402;2022-11-20T07:53:27;7.47;74.84
65854;DHT22;52627;48.838;2.402;2022-11-20T07:55:54;7.48;74.83
65854;DHT22;52627;48.838;2.402;2022-11-20T07:58:21;7.50;74.81
65854;DHT22;52627;48.838;2.402;2022-11-20T08:00:48;7.53;74.80
65854;DHT22;52627;48.838;2.402;2022-11-20T08:03:15;7.53;74.78
65854;DHT22;52627;48.838;2.402;2022-11-20T08:05:50;7.54;74.79
65854;DHT22;52627;48.838;2.402;2022-11-20T08:08:17;7.57;74.73
65854;DHT22;52627;48.838;2.402;2022-11-20T08:10:45;7.61;74.70
65854;DHT22;52627;48.838;2.402;2022-11-20T08:13:12;7.65;74.69
65854;DHT22;52627;48.838;2.402;2022-11-20T08:15:57;7.66;74.62
65854;DHT22;52627;48.838;2.402;2022-11-20T08:18:24;7.67;74.61
65854;DHT22;52627;48.838;2.402;2022-11-20T08:21:02;7.69;74.61
65854;DHT22;52627;48.838;2.402;2022-11-20T08:23:30;7.71;74.56
65854;DHT22;52627;48.838;2.402;2022-11-20T08:25:57;7.73;74.60
65854;DHT22;52627;48.838;2.402;2022-11-20T08:28:24;7.78;74.51
65854;DHT22;52627;48.838;2.402;2022-11-20T08:30:51;7.82;74.51
65854;DHT22;52627;48.838;2.402;2022-11-20T08:33:18;7.85;74.49
65854;DHT22;52627;48.838;2.402;2022-11-20T08:35:45;7.85;74.44
65854;DHT22;52627;48.838;2.402;2022-11-20T08:38:12;7.84;74.47
65854;DHT22;52627;48.838;2.402;2022-11-20T08:40:39;7.87;74.48
65854;DHT22;52627;48.838;2.402;2022-11-20T08:43:06;7.86;74.45
65854;DHT22;52627;48.838;2.402;2022-11-20T08:45:32;7.89;74.50
65854;DHT22;52627;48.838;2.402;2022-11-20T08:48:02;7.94;74.49
65854;DHT22;52627;48.838;2.402;2022-11-20T08:50:30;7.99;74.43
65854;DHT22;52627;48.838;2.402;2022-11-20T08:53:04;8.01;74.41
65854;DHT22;52627;48.838;2.402;2022-11-20T08:55:32;8.03;74.43
65854;DHT22;52627;48.838;2.402;2022-11-20T08:58:02;8.05;74.43
65854;DHT22;52627;48.838;2.402;2022-11-20T09:00:30;8.06;74.40
65854;DHT22;52627;48.838;2.402;2022-11-20T09:02:58;8.06;74.47
65854;DHT22;52627;48.838;2.402;2022-11-20T09:05:27;8.07;74.59
65854;DHT22;52627;48.838;2.402;2022-11-20T09:07:58;8.07;74.69
65854;DHT22;52627;48.838;2.402;2022-11-20T09:10:26;8.04;74.81
65854;DHT22;52627;48.838;2.402;2022-11-20T09:12:54;8.04;74.90
65854;DHT22;52627;48.838;2.402;2022-11-20T09:15:21;8.05;74.97
65854;DHT22;52627;48.838;2.402;2022-11-20T09:20:27;8.11;75.00
65854;DHT22;52627;48.838;2.402;2022-11-20T09:22:56;8.14;75.00
65854;DHT22;52627;48.838;2.402;2022-11-20T09:25:23;8.18;75.05
65854;DHT22;52627;48.838;2.402;2022-11-20T09:27:57;8.21;75.09
65854;DHT22;52627;48.838;2.402;2022-11-20T09:30:25;8.20;75.21
65854;DHT22;52627;48.838;2.402;2022-11-20T09:32:53;8.21;75.30
65854;DHT22;52627;48.838;2.402;2022-11-20T09:35:20;8.23;75.40
65854;DHT22;52627;48.838;2.402;2022-11-20T09:37:46;8.22;75.62
65854;DHT22;52627;48.838;2.402;2022-11-20T09:40:20;8.21;75.67
65854;DHT22;52627;48.838;2.402;2022-11-20T09:42:57;8.21;75.77
65854;DHT22;52627;48.838;2.402;2022-11-20T09:45:44;8.19;75.89
65854;DHT22;52627;48.838;2.402;2022-11-20T09:48:37;8.21;76.08
65854;DHT22;52627;48.838;2.402;2022-11-20T09:51:34;8.22;76.17
65854;DHT22;52627;48.838;2.402;2022-11-20T09:54:16;8.24;76.28
65854;DHT22;52627;48.838;2.402;2022-11-20T09:56:49;8.26;76.32
65854;DHT22;52627;48.838;2.402;2022-11-20T09:59:42;8.26;76.41
65854;DHT22;52627;48.838;2.402;2022-11-20T10:05:18;8.30;76.59
65854;DHT22;52627;48.838;2.402;2022-11-20T10:08:15;8.30;76.72
65854;DHT22;52627;48.838;2.402;2022-11-20T10:10:50;8.32;76.79
65854;DHT22;52627;48.838;2.402;2022-11-20T10:25:49;8.39;77.30
65854;DHT22;52627;48.838;2.402;2022-11-20T10:31:34;8.40;77.66
65854;DHT22;52627;48.838;2.402;2022-11-20T10:36:51;8.42;78.00
65854;DHT22;52627;48.838;2.402;2022-11-20T10:39:25;8.44;78.14
65854;DHT22;52627;48.838;2.402;2022-11-20T10:41:55;8.51;78.25
65854;DHT22;52627;48.838;2.402;2022-11-20T10:44:26;8.57;78.37
65854;DHT22;52627;48.838;2.402;2022-11-20T10:47:15;8.59;78.56
65854;DHT22;52627;48.838;2.402;2022-11-20T10:49:45;8.61;78.52
65854;DHT22;52627;48.838;2.402;2022-11-20T10:55:05;8.69;78.60
65854;DHT22;52627;48.838;2.402;2022-11-20T11:00:36;8.75;78.73
65854;DHT22;52627;48.838;2.402;2022-11-20T11:03:07;8.80;78.78
65854;DHT22;52627;48.838;2.402;2022-11-20T11:06:00;8.86;78.86
65854;DHT22;52627;48.838;2.402;2022-11-20T11:08:36;8.91;78.88
65854;DHT22;52627;48.838;2.402;2022-11-20T11:11:27;8.97;78.98
65854;DHT22;52627;48.838;2.402;2022-11-20T11:14:07;9.00;79.15
65854;DHT22;52627;48.838;2.402;2022-11-20T11:16:49;9.06;79.26
65854;DHT22;52627;48.838;2.402;2022-11-20T11:19:19;9.10;79.49
65854;DHT22;52627;48.838;2.402;2022-11-20T11:21:56;9.13;79.58
65854;DHT22;52627;48.838;2.402;2022-11-20T11:24:27;9.16;79.61
65854;DHT22;52627;48.838;2.402;2022-11-20T11:27:13;9.19;79.69
65854;DHT22;52627;48.838;2.402;2022-11-20T11:29:44;9.22;79.76
65854;DHT22;52627;48.838;2.402;2022-11-20T11:32:20;9.23;79.80
65854;DHT22;52627;48.838;2.402;2022-11-20T11:35:20;9.24;79.87
65854;DHT22;52627;48.838;2.402;2022-11-20T11:37:51;9.25;80.03
65854;DHT22;52627;48.838;2.402;2022-11-20T11:40:21;9.26;80.06
65854;DHT22;52627;48.838;2.402;2022-11-20T11:42:52;9.28;80.09
65854;DHT22;52627;48.838;2.402;2022-11-20T11:45:24;9.28;80.16
65854;DHT22;52627;48.838;2.402;2022-11-20T11:47:52;9.31;80.20
65854;DHT22;52627;48.838;2.402;2022-11-20T11:50:27;9.33;80.23
65854;DHT22;52627;48.838;2.402;2022-11-20T12:00:57;9.32;80.44
65854;DHT22;52627;48.838;2.402;2022-11-20T12:03:37;9.31;80.40
65854;DHT22;52627;48.838;2.402;2022-11-20T12:06:10;9.30;80.37
65854;DHT22;52627;48.838;2.402;2022-11-20T12:08:48;9.32;80.40
65854;DHT22;52627;48.838;2.402;2022-11-20T12:11:31;9.33;80.39
65854;DHT22;52627;48.838;2.402;2022-11-20T12:14:09;9.34;80.39
65854;DHT22;52627;48.838;2.402;2022-11-20T12:16:46;9.32;80.46
65854;DHT22;52627;48.838;2.402;2022-11-20T12:19:13;9.34;80.40
65854;DHT22;52627;48.838;2.402;2022-11-20T12:22:02;9.39;80.40
65854;DHT22;52627;48.838;2.402;2022-11-20T12:30:23;9.57;80.40
65854;DHT22;52627;48.838;2.402;2022-11-20T12:38:42;9.69;80.30
65854;DHT22;52627;48.838;2.402;2022-11-20T12:57:07;9.77;80.40
65854;DHT22;52627;48.838;2.402;2022-11-20T13:02:58;9.70;80.63
65854;DHT22;52627;48.838;2.402;2022-11-20T13:08:03;9.70;80.86
65854;DHT22;52627;48.838;2.402;2022-11-20T13:10:50;9.69;80.94
65854;DHT22;52627;48.838;2.402;2022-11-20T13:13:29;9.69;81.06
65854;DHT22;52627;48.838;2.402;2022-11-20T13:16:10;9.73;81.19
65854;DHT22;52627;48.838;2.402;2022-11-20T13:18:43;9.79;81.25
65854;DHT22;52627;48.838;2.402;2022-11-20T13:21:15;9.87;81.30
65854;DHT22;52627;48.838;2.402;2022-11-20T13:23:48;9.93;81.30
65854;DHT22;52627;48.838;2.402;2022-11-20T13:26:22;10.00;81.37
65854;DHT22;52627;48.838;2.402;2022-11-20T13:31:46;10.12;81.40
65854;DHT22;52627;48.838;2.402;2022-11-20T13:34:26;10.17;81.40
65854;DHT22;52627;48.838;2.402;2022-11-20T13:36:54;10.20;81.40
65854;DHT22;52627;48.838;2.402;2022-11-20T13:39:28;10.23;81.40
65854;DHT22;52627;48.838;2.402;2022-11-20T13:42:18;10.27;81.40
65854;DHT22;52627;48.838;2.402;2022-11-20T13:45:00;10.32;81.42
65854;DHT22;52627;48.838;2.402;2022-11-20T13:47:29;10.35;81.37
65854;DHT22;52627;48.838;2.402;2022-11-20T13:49:57;10.40;81.30
65854;DHT22;52627;48.838;2.402;2022-11-20T13:52:35;10.45;81.27
65854;DHT22;52627;48.838;2.402;2022-11-20T13:55:38;10.52;81.23
65854;DHT22;52627;48.838;2.402;2022-11-20T13:58:24;10.58;81.28
65854;DHT22;52627;48.838;2.402;2022-11-20T14:01:19;10.63;81.29
65854;DHT22;52627;48.838;2.402;2022-11-20T14:03:49;10.70;81.29
65854;DHT22;52627;48.838;2.402;2022-11-20T14:06:34;10.76;81.25
65854;DHT22;52627;48.838;2.402;2022-11-20T14:09:11;10.82;81.20
65854;DHT22;52627;48.838;2.402;2022-11-20T14:11:45;10.89;81.19
65854;DHT22;52627;48.838;2.402;2022-11-20T14:14:18;10.94;81.17
65854;DHT22;52627;48.838;2.402;2022-11-20T14:16:48;11.00;81.10
65854;DHT22;52627;48.838;2.402;2022-11-20T14:21:46;11.06;81.00
65854;DHT22;52627;48.838;2.402;2022-11-20T14:24:22;11.08;80.95
65854;DHT22;52627;48.838;2.402;2022-11-20T14:26:51;11.10;80.96
65854;DHT22;52627;48.838;2.402;2022-11-20T14:29:19;11.14;80.90
65854;DHT22;52627;48.838;2.402;2022-11-20T14:31:53;11.16;80.78
65854;DHT22;52627;48.838;2.402;2022-11-20T14:34:25;11.17;80.76
65854;DHT22;52627;48.838;2.402;2022-11-20T14:36:56;11.18;80.70
65854;DHT22;52627;48.838;2.402;2022-11-20T14:39:36;11.20;80.68
65854;DHT22;52627;48.838;2.402;2022-11-20T14:42:14;11.22;80.63
65854;DHT22;52627;48.838;2.402;2022-11-20T14:44:46;11.22;80.57
65854;DHT22;52627;48.838;2.402;2022-11-20T14:47:17;11.22;80.51
65854;DHT22;52627;48.838;2.402;2022-11-20T14:49:47;11.22;80.45
65854;DHT22;52627;48.838;2.402;2022-11-20T14:52:17;11.23;80.40
65854;DHT22;52627;48.838;2.402;2022-11-20T14:54:50;11.25;80.32
65854;DHT22;52627;48.838;2.402;2022-11-20T14:57:29;11.28;80.32
65854;DHT22;52627;48.838;2.402;2022-11-20T15:00:06;11.31;80.30
65854;DHT22;52627;48.838;2.402;2022-11-20T15:02:34;11.33;80.30
65854;DHT22;52627;48.838;2.402;2022-11-20T15:05:07;11.33;80.24
65854;DHT22;52627;48.838;2.402;2022-11-20T15:07:35;11.33;80.21
65854;DHT22;52627;48.838;2.402;2022-11-20T15:10:12;11.32;80.20
65854;DHT22;52627;48.838;2.402;2022-11-20T15:12:51;11.32;80.16
65854;DHT22;52627;48.838;2.402;2022-11-20T15:15:35;11.32;80.09
65854;DHT22;52627;48.838;2.402;2022-11-20T15:18:12;11.33;80.08
65854;DHT22;52627;48.838;2.402;2022-11-20T15:20:42;11.34;80.10
65854;DHT22;52627;48.838;2.402;2022-11-20T15:23:14;11.34;80.07
65854;DHT22;52627;48.838;2.402;2022-11-20T15:25:44;11.35;80.01
65854;DHT22;52627;48.838;2.402;2022-11-20T15:28:20;11.35;80.00
65854;DHT22;52627;48.838;2.402;2022-11-20T15:30:49;11.36;80.00
65854;DHT22;52627;48.838;2.402;2022-11-20T15:33:16;11.36;79.96
65854;DHT22;52627;48.838;2.402;2022-11-20T15:35:44;11.37;79.90
65854;DHT22;52627;48.838;2.402;2022-11-20T15:38:11;11.38;79.79
65854;DHT22;52627;48.838;2.402;2022-11-20T15:40:38;11.39;79.70
65854;DHT22;52627;48.838;2.402;2022-11-20T15:43:05;11.40;79.65
65854;DHT22;52627;48.838;2.402;2022-11-20T15:45:44;11.41;79.55
65854;DHT22;52627;48.838;2.402;2022-11-20T15:50:59;11.44;79.25
65854;DHT22;52627;48.838;2.402;2022-11-20T15:53:30;11.44;79.05
65854;DHT22;52627;48.838;2.402;2022-11-20T15:55:56;11.44;78.89
65854;DHT22;52627;48.838;2.402;2022-11-20T15:58:23;11.43;78.66
65854;DHT22;52627;48.838;2.402;2022-11-20T16:00:50;11.41;78.46
65854;DHT22;52627;48.838;2.402;2022-11-20T16:03:17;11.39;78.21
65854;DHT22;52627;48.838;2.402;2022-11-20T16:05:45;11.36;78.02
65854;DHT22;52627;48.838;2.402;2022-11-20T16:08:12;11.33;77.89
65854;DHT22;52627;48.838;2.402;2022-11-20T16:10:39;11.29;77.57
65854;DHT22;52627;48.838;2.402;2022-11-20T16:13:13;11.25;77.46
65854;DHT22;52627;48.838;2.402;2022-11-20T16:16:03;11.22;77.00
65854;DHT22;52627;48.838;2.402;2022-11-20T16:18:35;11.18;76.98
65854;DHT22;52627;48.838;2.402;2022-11-20T16:21:02;11.15;76.87
65854;DHT22;52627;48.838;2.402;2022-11-20T16:23:29;11.12;76.63
65854;DHT22;52627;48.838;2.402;2022-11-20T16:25:55;11.11;76.55
65854;DHT22;52627;48.838;2.402;2022-11-20T16:28:22;11.07;76.43
65854;DHT22;52627;48.838;2.402;2022-11-20T16:30:49;11.05;76.29
65854;DHT22;52627;48.838;2.402;2022-11-20T16:33:16;11.02;76.06
65854;DHT22;52627;48.838;2.402;2022-11-20T16:35:43;10.99;76.17
65854;DHT22;52627;48.838;2.402;2022-11-20T16:38:10;10.97;76.14
65854;DHT22;52627;48.838;2.402;2022-11-20T16:40:37;10.94;76.09
65854;DHT22;52627;48.838;2.402;2022-11-20T16:43:08;10.91;76.00
65854;DHT22;52627;48.838;2.402;2022-11-20T16:45:39;10.86;75.95
65854;DHT22;52627;48.838;2.402;2022-11-20T16:48:11;10.82;75.91
65854;DHT22;52627;48.838;2.402;2022-11-20T16:50:44;10.80;75.88
65854;DHT22;52627;48.838;2.402;2022-11-20T16:53:13;10.75;75.92
65854;DHT22;52627;48.838;2.402;2022-11-20T16:55:40;10.72;75.87
65854;DHT22;52627;48.838;2.402;2022-11-20T16:58:07;10.68;75.81
65854;DHT22;52627;48.838;2.402;2022-11-20T17:00:41;10.66;75.82
65854;DHT22;52627;48.838;2.402;2022-11-20T17:03:14;10.63;75.80
65854;DHT22;52627;48.838;2.402;2022-11-20T17:05:43;10.60;75.79
65854;DHT22;52627;48.838;2.402;2022-11-20T17:08:09;10.57;75.73
65854;DHT22;52627;48.838;2.402;2022-11-20T17:10:36;10.54;75.71
65854;DHT22;52627;48.838;2.402;2022-11-20T17:13:03;10.53;75.70
65854;DHT22;52627;48.838;2.402;2022-11-20T17:15:30;10.50;75.64
65854;DHT22;52627;48.838;2.402;2022-11-20T17:17:57;10.47;75.61
65854;DHT22;52627;48.838;2.402;2022-11-20T17:20:23;10.44;75.60
65854;DHT22;52627;48.838;2.402;2022-11-20T17:22:50;10.42;75.60
65854;DHT22;52627;48.838;2.402;2022-11-20T17:25:17;10.39;75.60
65854;DHT22;52627;48.838;2.402;2022-11-20T17:27:44;10.37;75.59
65854;DHT22;52627;48.838;2.402;2022-11-20T17:30:11;10.36;75.60
65854;DHT22;52627;48.838;2.402;2022-11-20T17:32:38;10.34;75.58
65854;DHT22;52627;48.838;2.402;2022-11-20T17:35:10;10.33;75.54